Time;durP1;ratioP1;P1;durP2;ratioP2;P2;SDS_P1;SDS_P2;PMS_P1;PMS_P2;Temp;Humidity;BMP_temperature;BMP_pressure;BME280_temperature;BME280_humidity;BME280_pressure;Samples;Min_cycle;Max_cycle;Signal;HPM_P1;HPM_P2
2021/06/05 00:00:55;;;;;;;5.30;4.30;;;;;;;;;;5017190;28;20651;-84
2021/06/05 00:04:00;;;;;;;14.63;6.97;;;;;;;;;;5013685;28;20186;-82
2021/06/05 00:07:05;;;;;;;7.63;4.90;;;;;;;;;;5003849;28;20224;-84
2021/06/05 00:10:16;;;;;;;5.87;4.13;;;;;;;;;;5002815;28;20668;-82
2021/06/05 00:13:23;;;;;;;5.67;4.10;;;;;;;;;;5005798;28;20177;-82
2021/06/05 00:16:40;;;;;;;8.43;3.97;;;;;;;;;;5005624;28;20181;-84
2021/06/05 00:19:44;;;;;;;5.00;3.73;;;;;;;;;;5024222;28;20209;-84
2021/06/05 00:22:49;;;;;;;4.93;3.73;;;;;;;;;;5025506;28;20258;-84
2021/06/05 00:25:55;;;;;;;5.57;3.80;;;;;;;;;;5006738;28;20194;-83
2021/06/05 00:29:00;;;;;;;4.10;3.67;;;;;;;;;;5029991;28;20209;-82
2021/06/05 00:32:05;;;;;;;4.77;3.90;;;;;;;;;;5016567;28;20189;-83
2021/06/05 00:35:11;;;;;;;4.63;4.13;;;;;;;;;;5004985;28;20201;-84
2021/06/05 00:38:16;;;;;;;3.93;3.53;;;;;;;;;;5004678;28;20217;-84
2021/06/05 00:41:23;;;;;;;6.80;3.80;;;;;;;;;;5016419;28;20178;-84
2021/06/05 00:44:30;;;;;;;4.83;4.00;;;;;;;;;;4995095;28;20637;-82
2021/06/05 00:47:35;;;;;;;5.80;3.67;;;;;;;;;;5013681;28;20209;-83
2021/06/05 00:50:46;;;;;;;4.20;3.80;;;;;;;;;;4995025;28;20201;-84
2021/06/05 00:53:52;;;;;;;6.20;3.83;;;;;;;;;;5005544;28;20645;-84
2021/06/05 00:57:00;;;;;;;5.40;4.20;;;;;;;;;;4994477;28;20197;-84
2021/06/05 01:00:27;;;;;;;5.13;4.13;;;;;;;;;;4999230;28;20196;-82
2021/06/05 01:03:33;;;;;;;4.90;4.03;;;;;;;;;;5018324;28;20193;-81
2021/06/05 01:06:48;;;;;;;4.47;4.03;;;;;;;;;;5011764;28;20188;-82
2021/06/05 01:10:03;;;;;;;4.97;3.97;;;;;;;;;;5035128;28;20212;-83
2021/06/05 01:13:18;;;;;;;5.73;4.00;;;;;;;;;;5013839;28;20189;-82
2021/06/05 01:16:24;;;;;;;4.20;3.60;;;;;;;;;;4984789;28;20186;-83
2021/06/05 01:19:43;;;;;;;6.70;4.10;;;;;;;;;;4995842;28;20210;-82
2021/06/05 01:23:22;;;;;;;4.57;3.60;;;;;;;;;;4984980;28;20626;-82
2021/06/05 01:26:32;;;;;;;5.07;3.80;;;;;;;;;;5016568;28;20185;-82
2021/06/05 01:29:43;;;;;;;5.27;4.40;;;;;;;;;;4985058;28;20210;-82
2021/06/05 01:32:49;;;;;;;8.03;4.17;;;;;;;;;;4984902;28;20186;-82
2021/06/05 01:35:54;;;;;;;5.90;3.70;;;;;;;;;;4984734;28;20174;-82
2021/06/05 01:39:08;;;;;;;9.70;4.50;;;;;;;;;;5010781;28;20696;-82
2021/06/05 01:42:28;;;;;;;5.60;4.37;;;;;;;;;;5008917;28;20193;-82
2021/06/05 01:45:39;;;;;;;6.13;4.37;;;;;;;;;;5004133;28;20184;-84
2021/06/05 01:48:44;;;;;;;7.17;4.40;;;;;;;;;;5012095;28;20224;-82
2021/06/05 01:51:52;;;;;;;4.77;4.20;;;;;;;;;;5014088;28;20192;-81
2021/06/05 01:55:08;;;;;;;4.90;4.40;;;;;;;;;;5010501;28;20536;-84
2021/06/05 01:58:18;;;;;;;4.33;3.93;;;;;;;;;;5023739;28;20212;-82
2021/06/05 02:01:31;;;;;;;4.93;4.43;;;;;;;;;;5012525;28;20197;-82
2021/06/05 02:04:39;;;;;;;5.53;4.73;;;;;;;;;;4996448;28;20186;-82
2021/06/05 02:07:45;;;;;;;8.03;5.17;;;;;;;;;;5003931;28;20684;-82
2021/06/05 02:10:53;;;;;;;7.37;5.57;;;;;;;;;;4992628;28;20182;-81
2021/06/05 02:14:06;;;;;;;6.93;5.23;;;;;;;;;;5002492;28;20181;-83
2021/06/05 02:17:13;;;;;;;9.17;5.60;;;;;;;;;;5003253;28;20190;-81
2021/06/05 02:20:31;;;;;;;7.07;5.57;;;;;;;;;;4992465;28;20632;-82
2021/06/05 02:23:49;;;;;;;7.67;5.17;;;;;;;;;;5011940;28;20188;-82
2021/06/05 02:26:54;;;;;;;8.43;5.57;;;;;;;;;;5005928;28;20533;-82
2021/06/05 02:30:14;;;;;;;8.03;6.30;;;;;;;;;;5014546;28;20189;-82
2021/06/05 02:33:20;;;;;;;10.03;6.13;;;;;;;;;;5002608;28;20533;-82
2021/06/05 02:36:27;;;;;;;8.43;7.17;;;;;;;;;;5011920;28;20184;-81
2021/06/05 02:39:32;;;;;;;8.33;7.03;;;;;;;;;;5022468;28;20209;-84
2021/06/05 02:42:43;;;;;;;11.03;7.07;;;;;;;;;;5010653;28;20185;-84
2021/06/05 02:45:47;;;;;;;11.63;6.87;;;;;;;;;;4972501;28;20205;-84
2021/06/05 02:48:55;;;;;;;9.27;7.23;;;;;;;;;;4983054;28;20700;-82
2021/06/05 02:52:30;;;;;;;9.00;7.20;;;;;;;;;;5009798;28;22040;-82
2021/06/05 02:55:41;;;;;;;8.43;7.23;;;;;;;;;;5014985;28;20181;-84
2021/06/05 02:58:47;;;;;;;8.70;7.10;;;;;;;;;;5002585;28;20209;-83
2021/06/05 03:01:55;;;;;;;10.77;7.37;;;;;;;;;;5020838;28;20185;-82
2021/06/05 03:05:04;;;;;;;9.20;8.30;;;;;;;;;;4972589;28;20187;-82
2021/06/05 03:08:12;;;;;;;6.77;6.10;;;;;;;;;;5010426;28;20224;-83
2021/06/05 03:11:19;;;;;;;7.63;6.40;;;;;;;;;;4991440;28;20186;-82
2021/06/05 03:14:26;;;;;;;7.60;6.80;;;;;;;;;;5032630;28;20193;-82
2021/06/05 03:17:31;;;;;;;7.03;6.43;;;;;;;;;;5007903;28;20190;-83
2021/06/05 03:20:40;;;;;;;7.50;6.80;;;;;;;;;;4983413;28;20182;-82
2021/06/05 03:23:47;;;;;;;8.50;5.80;;;;;;;;;;4997178;28;20196;-82
2021/06/05 03:26:57;;;;;;;7.43;5.77;;;;;;;;;;5017572;28;20198;-83
2021/06/05 03:30:06;;;;;;;7.07;6.40;;;;;;;;;;5002404;28;20541;-83
2021/06/05 03:33:14;;;;;;;7.17;6.40;;;;;;;;;;5003605;28;20530;-83
2021/06/05 03:36:21;;;;;;;7.40;6.70;;;;;;;;;;5002620;28;20181;-83
2021/06/05 03:39:25;;;;;;;6.77;6.07;;;;;;;;;;5001819;28;20213;-83
2021/06/05 03:42:36;;;;;;;6.73;5.30;;;;;;;;;;5004218;28;20192;-83
2021/06/05 03:45:41;;;;;;;5.90;5.30;;;;;;;;;;4992621;28;20182;-83
2021/06/05 03:48:46;;;;;;;6.30;5.30;;;;;;;;;;5045547;22;22273;-84
2021/06/05 03:51:50;;;;;;;6.67;5.30;;;;;;;;;;5050439;28;20192;-82
2021/06/05 03:54:57;;;;;;;6.83;5.47;;;;;;;;;;5050037;28;20203;-82
2021/06/05 03:58:02;;;;;;;6.03;5.43;;;;;;;;;;5050456;28;20175;-82
2021/06/05 04:01:09;;;;;;;9.30;6.80;;;;;;;;;;5056976;28;20179;-83
2021/06/05 04:04:14;;;;;;;6.40;5.80;;;;;;;;;;5045513;28;20647;-82
2021/06/05 04:07:19;;;;;;;7.37;5.77;;;;;;;;;;5030111;28;20177;-82
2021/06/05 04:10:25;;;;;;;9.00;8.10;;;;;;;;;;5053087;28;20200;-83
2021/06/05 04:13:30;;;;;;;8.43;7.43;;;;;;;;;;5048180;28;20642;-83
2021/06/05 04:16:34;;;;;;;9.23;7.00;;;;;;;;;;5040786;28;20191;-83
2021/06/05 04:19:39;;;;;;;7.47;6.77;;;;;;;;;;5041203;28;20690;-83
2021/06/05 04:22:43;;;;;;;10.23;7.10;;;;;;;;;;5039620;28;20180;-83
2021/06/05 04:25:48;;;;;;;8.73;6.93;;;;;;;;;;5053523;28;20184;-83
2021/06/05 04:28:52;;;;;;;9.10;6.90;;;;;;;;;;5029551;28;20223;-83
2021/06/05 04:31:56;;;;;;;8.30;7.50;;;;;;;;;;5052007;28;20200;-83
2021/06/05 04:35:00;;;;;;;8.27;7.33;;;;;;;;;;5021294;28;20184;-82
2021/06/05 04:38:06;;;;;;;8.90;7.60;;;;;;;;;;5053213;28;20184;-83
2021/06/05 04:41:13;;;;;;;9.17;8.30;;;;;;;;;;5040891;28;20176;-82
2021/06/05 04:44:17;;;;;;;9.70;8.00;;;;;;;;;;5030838;28;20192;-83
2021/06/05 04:47:21;;;;;;;9.97;8.83;;;;;;;;;;5054498;28;20535;-82
2021/06/05 04:50:31;;;;;;;8.27;7.47;;;;;;;;;;5072166;28;20211;-83
2021/06/05 04:53:36;;;;;;;11.37;8.97;;;;;;;;;;5047118;28;20643;-82
2021/06/05 04:56:43;;;;;;;11.47;9.10;;;;;;;;;;5056673;28;20176;-82
2021/06/05 04:59:47;;;;;;;11.67;7.80;;;;;;;;;;5024372;28;20209;-82
2021/06/05 05:02:52;;;;;;;9.53;8.57;;;;;;;;;;5035929;28;20521;-83
2021/06/05 05:05:59;;;;;;;10.27;7.57;;;;;;;;;;5022182;28;20184;-82
2021/06/05 05:09:09;;;;;;;9.20;7.87;;;;;;;;;;5064391;28;20713;-82
2021/06/05 05:12:13;;;;;;;8.03;7.13;;;;;;;;;;5067793;28;20535;-82
2021/06/05 05:15:17;;;;;;;9.77;8.27;;;;;;;;;;5064762;28;20519;-82
2021/06/05 05:18:23;;;;;;;9.80;7.83;;;;;;;;;;5052986;28;20176;-82
2021/06/05 05:21:27;;;;;;;8.03;6.97;;;;;;;;;;5057547;28;20200;-82
2021/06/05 05:24:31;;;;;;;7.33;6.63;;;;;;;;;;5064071;28;20199;-82
2021/06/05 05:27:35;;;;;;;7.17;6.23;;;;;;;;;;5043880;28;20180;-82
2021/06/05 05:30:45;;;;;;;8.80;6.27;;;;;;;;;;5058586;28;20203;-84
2021/06/05 05:33:49;;;;;;;8.27;5.77;;;;;;;;;;5059137;28;20196;-83
2021/06/05 05:36:54;;;;;;;7.40;5.20;;;;;;;;;;5056537;28;20547;-84
2021/06/05 05:39:58;;;;;;;5.20;4.70;;;;;;;;;;5055076;28;20555;-83
2021/06/05 05:43:03;;;;;;;5.33;4.80;;;;;;;;;;5042190;28;20540;-83
2021/06/05 05:46:09;;;;;;;4.73;4.17;;;;;;;;;;5042828;28;20189;-84
2021/06/05 05:49:13;;;;;;;6.87;4.03;;;;;;;;;;5048958;28;20227;-84
2021/06/05 05:52:17;;;;;;;5.37;3.20;;;;;;;;;;5043123;28;20191;-84
2021/06/05 05:55:21;;;;;;;6.63;3.37;;;;;;;;;;5054610;28;20196;-83
2021/06/05 05:58:26;;;;;;;6.33;3.40;;;;;;;;;;5054514;28;20184;-87
2021/06/05 06:01:31;;;;;;;5.13;3.53;;;;;;;;;;5042748;28;20259;-84
2021/06/05 06:04:35;;;;;;;4.40;3.07;;;;;;;;;;5031352;28;20191;-84
2021/06/05 06:07:40;;;;;;;8.77;3.77;;;;;;;;;;5052079;28;20643;-84
2021/06/05 06:10:44;;;;;;;3.73;3.30;;;;;;;;;;5039289;28;20203;-84
2021/06/05 06:13:49;;;;;;;4.63;4.23;;;;;;;;;;5042827;28;20188;-84
2021/06/05 06:16:54;;;;;;;9.17;4.07;;;;;;;;;;5055536;28;20176;-84
2021/06/05 06:19:58;;;;;;;5.97;4.17;;;;;;;;;;5035768;28;20216;-84
2021/06/05 06:23:02;;;;;;;5.20;3.20;;;;;;;;;;5053997;28;20192;-84
2021/06/05 06:26:10;;;;;;;5.67;3.57;;;;;;;;;;5034782;28;20628;-85
2021/06/05 06:29:16;;;;;;;5.83;2.90;;;;;;;;;;5011814;28;20224;-85
2021/06/05 06:32:21;;;;;;;4.77;3.30;;;;;;;;;;5024112;28;20189;-84
2021/06/05 06:35:28;;;;;;;5.47;3.17;;;;;;;;;;5041734;28;20188;-84
2021/06/05 06:38:36;;;;;;;4.87;2.73;;;;;;;;;;5030938;28;20536;-84
2021/06/05 06:41:42;;;;;;;2.70;2.50;;;;;;;;;;5028198;28;20671;-85
2021/06/05 06:44:47;;;;;;;3.90;2.50;;;;;;;;;;5031920;28;20302;-86
2021/06/05 06:47:51;;;;;;;2.73;2.30;;;;;;;;;;5054005;28;20183;-86
2021/06/05 06:50:55;;;;;;;3.30;2.40;;;;;;;;;;5057835;28;20184;-84
2021/06/05 06:54:00;;;;;;;3.70;2.53;;;;;;;;;;5030940;28;20196;-85
2021/06/05 06:57:05;;;;;;;2.93;2.47;;;;;;;;;;5042622;28;20176;-84
2021/06/05 07:00:14;;;;;;;6.70;2.40;;;;;;;;;;5041942;28;20556;-84
2021/06/05 07:03:18;;;;;;;3.70;2.00;;;;;;;;;;5022971;28;20185;-83
2021/06/05 07:06:25;;;;;;;4.23;2.50;;;;;;;;;;5038210;28;20188;-83
2021/06/05 07:09:32;;;;;;;3.07;2.20;;;;;;;;;;5031421;28;20540;-84
2021/06/05 07:12:36;;;;;;;3.77;2.10;;;;;;;;;;5065589;28;20184;-84
2021/06/05 07:15:41;;;;;;;4.03;2.67;;;;;;;;;;5030708;28;20180;-84
2021/06/05 07:18:47;;;;;;;6.90;2.20;;;;;;;;;;5054266;28;20228;-84
2021/06/05 07:21:53;;;;;;;3.13;2.07;;;;;;;;;;5054600;28;20516;-85
2021/06/05 07:24:57;;;;;;;3.40;2.10;;;;;;;;;;5042339;28;20188;-84
2021/06/05 07:28:21;;;;;;;4.07;2.00;;;;;;;;;;5030637;28;20196;-84
2021/06/05 07:31:41;;;;;;;3.87;1.60;;;;;;;;;;5042485;28;20627;-84
2021/06/05 07:34:46;;;;;;;4.70;1.87;;;;;;;;;;5042282;28;20555;-85
2021/06/05 07:37:50;;;;;;;2.60;1.70;;;;;;;;;;5053926;28;20184;-85
2021/06/05 07:40:56;;;;;;;2.20;1.50;;;;;;;;;;5041565;28;20188;-84
2021/06/05 07:44:00;;;;;;;3.43;1.57;;;;;;;;;;5028859;28;20197;-84
2021/06/05 07:47:04;;;;;;;4.07;1.30;;;;;;;;;;5053602;28;20185;-83
2021/06/05 07:50:11;;;;;;;2.70;1.47;;;;;;;;;;5052589;28;20222;-83
2021/06/05 07:53:15;;;;;;;43.30;4.50;;;;;;;;;;5053559;28;20619;-83
2021/06/05 07:56:20;;;;;;;2.37;1.13;;;;;;;;;;5034890;28;20642;-84
2021/06/05 07:59:28;;;;;;;1.67;1.10;;;;;;;;;;5035625;28;20223;-84
2021/06/05 08:02:32;;;;;;;3.65;1.30;;;;;;;;;;5045794;28;20200;-86
2021/06/05 08:05:38;;;;;;;1.38;1.15;;;;;;;;;;5065785;28;20188;-81
2021/06/05 08:08:43;;;;;;;1.52;1.10;;;;;;;;;;5049778;28;20639;-81
2021/06/05 08:11:47;;;;;;;2.33;0.90;;;;;;;;;;5053560;28;20187;-81
2021/06/05 08:14:51;;;;;;;1.75;1.13;;;;;;;;;;5054758;28;20180;-80
2021/06/05 08:17:56;;;;;;;1.60;0.80;;;;;;;;;;5064719;28;20199;-80
2021/06/05 08:21:04;;;;;;;2.55;1.00;;;;;;;;;;5062159;28;20191;-81
2021/06/05 08:24:10;;;;;;;3.75;1.23;;;;;;;;;;5054493;28;20191;-81
2021/06/05 08:27:15;;;;;;;2.92;1.20;;;;;;;;;;5031915;28;20543;-81
2021/06/05 08:30:23;;;;;;;1.17;0.90;;;;;;;;;;5056837;28;20223;-81
2021/06/05 08:33:27;;;;;;;2.03;1.00;;;;;;;;;;5050151;28;20204;-81
2021/06/05 08:36:32;;;;;;;1.38;1.02;;;;;;;;;;5061729;28;20188;-81
2021/06/05 08:39:37;;;;;;;1.58;1.00;;;;;;;;;;5047629;28;20216;-81
2021/06/05 08:42:50;;;;;;;1.88;1.10;;;;;;;;;;5069597;28;20181;-82
2021/06/05 08:45:55;;;;;;;4.15;1.30;;;;;;;;;;5068324;28;20202;-81
2021/06/05 08:49:01;;;;;;;4.93;1.00;;;;;;;;;;5057187;28;20227;-81
2021/06/05 08:52:11;;;;;;;2.17;1.15;;;;;;;;;;5033679;28;20183;-81
2021/06/05 08:55:38;;;;;;;2.03;1.10;;;;;;;;;;5045546;28;20638;-81
2021/06/05 08:58:48;;;;;;;1.60;0.90;;;;;;;;;;5036124;28;20175;-81
2021/06/05 09:01:54;;;;;;;2.35;1.10;;;;;;;;;;5051535;28;20185;-81
2021/06/05 09:05:02;;;;;;;3.00;1.05;;;;;;;;;;5024978;28;20202;-81
2021/06/05 09:08:15;;;;;;;4.43;1.00;;;;;;;;;;5040455;28;20182;-81
2021/06/05 09:11:19;;;;;;;9.00;1.33;;;;;;;;;;5056356;28;20673;-81
2021/06/05 09:14:23;;;;;;;1.35;0.85;;;;;;;;;;5044653;28;20197;-81
2021/06/05 09:17:45;;;;;;;3.10;0.90;;;;;;;;;;5033114;28;20200;-82
2021/06/05 09:21:06;;;;;;;1.85;0.77;;;;;;;;;;5032453;28;20213;-81
2021/06/05 09:24:33;;;;;;;1.33;0.77;;;;;;;;;;5055730;28;20619;-81
2021/06/05 09:27:39;;;;;;;5.88;1.90;;;;;;;;;;5043851;28;20224;-80
2021/06/05 09:30:43;;;;;;;3.17;1.00;;;;;;;;;;5055034;28;20223;-81
2021/06/05 09:33:48;;;;;;;1.57;0.80;;;;;;;;;;5055137;28;20359;-81
2021/06/05 09:36:53;;;;;;;5.30;1.52;;;;;;;;;;5035569;28;20180;-81
2021/06/05 09:40:14;;;;;;;7.32;2.00;;;;;;;;;;5046316;28;20212;-81
2021/06/05 09:43:22;;;;;;;7.88;1.65;;;;;;;;;;5024260;28;20188;-80
2021/06/05 09:46:31;;;;;;;3.67;1.60;;;;;;;;;;5052612;28;20192;-81
2021/06/05 09:49:39;;;;;;;1.93;1.47;;;;;;;;;;5088348;22;20238;-89
2021/06/05 09:52:43;;;;;;;5.80;1.38;;;;;;;;;;5054098;28;20205;-87
2021/06/05 09:55:48;;;;;;;17.83;2.28;;;;;;;;;;5031732;28;20189;-87
2021/06/05 09:59:19;;;;;;;47.97;3.95;;;;;;;;;;5043592;28;20188;-89
2021/06/05 10:02:23;;;;;;;2.80;1.40;;;;;;;;;;5030713;28;20193;-90
2021/06/05 10:05:35;;;;;;;2.92;1.13;;;;;;;;;;5023190;28;20665;-87
2021/06/05 10:08:41;;;;;;;2.22;1.67;;;;;;;;;;5030371;28;20654;-87
2021/06/05 10:11:48;;;;;;;2.33;1.42;;;;;;;;;;5023697;28;20558;-87
2021/06/05 10:15:01;;;;;;;12.20;1.98;;;;;;;;;;5003916;28;20199;-87
2021/06/05 10:18:33;;;;;;;2.25;1.10;;;;;;;;;;5004118;28;20635;-88
2021/06/05 10:21:41;;;;;;;4.43;1.20;;;;;;;;;;5003737;28;20634;-87
2021/06/05 10:25:17;;;;;;;2.38;1.00;;;;;;;;;;5004646;28;20185;-86
2021/06/05 10:28:30;;;;;;;3.45;1.02;;;;;;;;;;5004305;28;20510;-87
2021/06/05 10:31:37;;;;;;;4.00;1.20;;;;;;;;;;4992077;28;20210;-88
2021/06/05 10:34:48;;;;;;;4.05;0.90;;;;;;;;;;5002806;28;20181;-88
2021/06/05 10:38:01;;;;;;;2.22;1.00;;;;;;;;;;5014310;28;20184;-87
2021/06/05 10:41:08;;;;;;;1.65;0.90;;;;;;;;;;5025259;28;20212;-87
2021/06/05 10:44:13;;;;;;;10.15;1.20;;;;;;;;;;5002977;28;20180;-87
2021/06/05 10:47:22;;;;;;;1.67;0.90;;;;;;;;;;5014035;28;20191;-87
2021/06/05 10:50:36;;;;;;;2.15;0.90;;;;;;;;;;5012788;28;20698;-87
2021/06/05 10:53:50;;;;;;;4.88;1.10;;;;;;;;;;5002607;28;20187;-87
2021/06/05 10:56:57;;;;;;;1.17;0.70;;;;;;;;;;5002379;28;20189;-87
2021/06/05 11:00:22;;;;;;;2.90;1.10;;;;;;;;;;4991141;28;20219;-87
2021/06/05 11:03:26;;;;;;;2.78;1.00;;;;;;;;;;5013784;28;20527;-87
2021/06/05 11:07:02;;;;;;;2.42;1.00;;;;;;;;;;4991416;28;20185;-87
2021/06/05 11:10:07;;;;;;;4.05;1.10;;;;;;;;;;5002200;28;20222;-87
2021/06/05 11:13:32;;;;;;;4.57;1.10;;;;;;;;;;5013667;28;20186;-87
2021/06/05 11:16:58;;;;;;;3.83;1.35;;;;;;;;;;5013577;28;20189;-87
2021/06/05 11:20:04;;;;;;;5.70;0.90;;;;;;;;;;4991071;28;20221;-87
2021/06/05 11:23:14;;;;;;;3.30;1.10;;;;;;;;;;5019593;28;20208;-84
2021/06/05 11:26:37;;;;;;;3.53;1.00;;;;;;;;;;5022522;28;20184;-84
2021/06/05 11:29:49;;;;;;;1.65;1.10;;;;;;;;;;5039213;28;20214;-83
2021/06/05 11:32:59;;;;;;;1.95;1.13;;;;;;;;;;5030475;28;20168;-84
2021/06/05 11:36:48;;;;;;;4.68;1.05;;;;;;;;;;5016680;28;20191;-84
2021/06/05 11:40:03;;;;;;;2.70;1.00;;;;;;;;;;5035137;28;20220;-83
2021/06/05 11:43:20;;;;;;;2.42;1.02;;;;;;;;;;5035989;28;20203;-83
2021/06/05 11:46:24;;;;;;;8.85;1.25;;;;;;;;;;5034884;28;20544;-83
2021/06/05 11:49:41;;;;;;;3.25;0.75;;;;;;;;;;5031761;28;20230;-83
2021/06/05 11:52:47;;;;;;;4.72;1.25;;;;;;;;;;5013045;28;20668;-83
2021/06/05 11:55:55;;;;;;;3.90;1.00;;;;;;;;;;5014130;28;20670;-83
2021/06/05 11:59:10;;;;;;;3.38;0.95;;;;;;;;;;5001854;28;20636;-84
2021/06/05 12:02:23;;;;;;;4.00;0.82;;;;;;;;;;5015668;28;20199;-83
2021/06/05 12:05:40;;;;;;;1.73;0.95;;;;;;;;;;5024119;28;20671;-84
2021/06/05 12:08:45;;;;;;;2.08;0.88;;;;;;;;;;5031518;28;20552;-83
2021/06/05 12:11:59;;;;;;;3.72;1.00;;;;;;;;;;5023817;28;20212;-83
2021/06/05 12:15:23;;;;;;;2.45;1.20;;;;;;;;;;5044507;28;20201;-84
2021/06/05 12:18:28;;;;;;;2.25;1.00;;;;;;;;;;5046637;28;20188;-83
2021/06/05 12:21:39;;;;;;;4.28;1.08;;;;;;;;;;5032390;28;20184;-84
2021/06/05 12:24:48;;;;;;;2.10;1.05;;;;;;;;;;5025521;28;20185;-84
2021/06/05 12:28:16;;;;;;;22.75;2.47;;;;;;;;;;5038611;28;20185;-83
2021/06/05 12:31:30;;;;;;;2.33;1.02;;;;;;;;;;5051251;28;20216;-84
2021/06/05 12:34:38;;;;;;;1.67;1.17;;;;;;;;;;5040434;28;20205;-84
2021/06/05 12:37:48;;;;;;;3.42;0.93;;;;;;;;;;5036215;28;20623;-83
2021/06/05 12:41:00;;;;;;;2.55;1.13;;;;;;;;;;5032649;28;20224;-83
2021/06/05 12:44:06;;;;;;;3.58;1.23;;;;;;;;;;5014145;28;20583;-83
2021/06/05 12:47:18;;;;;;;3.22;1.10;;;;;;;;;;5055226;28;20204;-84
2021/06/05 12:50:28;;;;;;;2.22;1.40;;;;;;;;;;5050541;28;20232;-82
2021/06/05 12:53:33;;;;;;;2.03;1.20;;;;;;;;;;5036066;28;20214;-82
2021/06/05 12:56:40;;;;;;;2.35;1.30;;;;;;;;;;5041715;28;20196;-83
2021/06/05 12:59:45;;;;;;;3.35;0.98;;;;;;;;;;5025379;28;20212;-83
2021/06/05 13:02:52;;;;;;;3.00;1.50;;;;;;;;;;5004533;28;20184;-82
2021/06/05 13:06:06;;;;;;;3.30;1.50;;;;;;;;;;5025969;28;20198;-83
2021/06/05 13:09:22;;;;;;;2.95;1.70;;;;;;;;;;5029542;28;20188;-82
2021/06/05 13:12:29;;;;;;;2.08;1.17;;;;;;;;;;5020784;28;20558;-83
2021/06/05 13:15:42;;;;;;;2.38;1.38;;;;;;;;;;5045252;28;20544;-83
2021/06/05 13:18:48;;;;;;;1.67;1.02;;;;;;;;;;5030907;28;20195;-82
2021/06/05 13:22:07;;;;;;;1.83;1.10;;;;;;;;;;5019832;28;20181;-82
2021/06/05 13:25:15;;;;;;;2.88;0.98;;;;;;;;;;5055775;28;20186;-83
2021/06/05 13:28:31;;;;;;;3.78;0.90;;;;;;;;;;5047439;28;20196;-82
2021/06/05 13:31:45;;;;;;;2.70;1.00;;;;;;;;;;5023605;28;20213;-82
2021/06/05 13:34:49;;;;;;;2.88;0.82;;;;;;;;;;5015501;28;20197;-83
2021/06/05 13:37:57;;;;;;;1.98;0.90;;;;;;;;;;5017973;28;20179;-82
2021/06/05 13:41:01;;;;;;;10.55;1.40;;;;;;;;;;5037131;28;20211;-83
2021/06/05 13:44:06;;;;;;;1.77;0.90;;;;;;;;;;5022425;28;20200;-84
2021/06/05 13:47:12;;;;;;;3.25;0.95;;;;;;;;;;5026891;28;20663;-82
2021/06/05 13:50:20;;;;;;;1.85;1.33;;;;;;;;;;5034889;28;20701;-82
2021/06/05 13:53:28;;;;;;;1.40;1.30;;;;;;;;;;5015368;28;20167;-82
2021/06/05 13:56:36;;;;;;;3.17;1.08;;;;;;;;;;5015196;28;20651;-83
2021/06/05 13:59:40;;;;;;;1.48;1.30;;;;;;;;;;5037958;28;20563;-82
2021/06/05 14:02:45;;;;;;;3.67;1.20;;;;;;;;;;5021860;28;20180;-83
2021/06/05 14:05:50;;;;;;;3.78;1.52;;;;;;;;;;5023856;28;20184;-83
2021/06/05 14:08:55;;;;;;;10.05;1.85;;;;;;;;;;5037452;28;20196;-83
2021/06/05 14:11:59;;;;;;;3.50;1.65;;;;;;;;;;5017167;28;20219;-83
2021/06/05 14:15:07;;;;;;;2.83;1.45;;;;;;;;;;5012668;28;20181;-83
2021/06/05 14:18:14;;;;;;;1.88;1.45;;;;;;;;;;5014844;28;20192;-82
2021/06/05 14:21:19;;;;;;;3.92;1.70;;;;;;;;;;5033775;28;20216;-82
2021/06/05 14:24:23;;;;;;;3.08;1.30;;;;;;;;;;5009944;28;20192;-82
2021/06/05 14:27:27;;;;;;;2.65;1.40;;;;;;;;;;5022430;28;20185;-83
2021/06/05 14:30:34;;;;;;;4.10;1.52;;;;;;;;;;5022569;28;20219;-82
2021/06/05 14:33:41;;;;;;;1.92;1.45;;;;;;;;;;5036560;28;20513;-82
2021/06/05 14:36:45;;;;;;;2.28;1.38;;;;;;;;;;5029132;28;20222;-82
2021/06/05 14:39:49;;;;;;;1.52;1.42;;;;;;;;;;5024858;28;20219;-83
2021/06/05 14:42:54;;;;;;;5.63;1.58;;;;;;;;;;5042429;28;20193;-83
2021/06/05 14:45:59;;;;;;;2.97;1.55;;;;;;;;;;5034882;28;20207;-82
2021/06/05 14:49:04;;;;;;;1.60;1.35;;;;;;;;;;5032350;28;20191;-82
2021/06/05 14:52:08;;;;;;;2.67;1.73;;;;;;;;;;5014525;28;20543;-83
2021/06/05 14:55:16;;;;;;;2.97;1.58;;;;;;;;;;5002484;28;20188;-83
2021/06/05 14:58:21;;;;;;;2.88;1.77;;;;;;;;;;5015192;28;20182;-83
2021/06/05 15:01:26;;;;;;;3.55;1.80;;;;;;;;;;5013693;28;20216;-82
2021/06/05 15:04:30;;;;;;;3.05;1.73;;;;;;;;;;5036794;28;20190;-82
2021/06/05 15:07:34;;;;;;;26.40;2.97;;;;;;;;;;5040688;28;20182;-82
2021/06/05 15:10:39;;;;;;;2.30;1.80;;;;;;;;;;5038709;28;20218;-82
2021/06/05 15:13:43;;;;;;;8.57;1.63;;;;;;;;;;5051339;28;20184;-82
2021/06/05 15:16:47;;;;;;;3.00;1.40;;;;;;;;;;5035075;28;20539;-82
2021/06/05 15:19:51;;;;;;;4.35;1.45;;;;;;;;;;5021899;28;20217;-82
2021/06/05 15:22:56;;;;;;;5.95;1.40;;;;;;;;;;5048296;28;20190;-82
2021/06/05 15:26:00;;;;;;;4.65;1.33;;;;;;;;;;5050097;28;20221;-82
2021/06/05 15:29:05;;;;;;;2.25;1.40;;;;;;;;;;5033495;28;20183;-82
2021/06/05 15:32:09;;;;;;;3.97;1.50;;;;;;;;;;5034687;28;20200;-82
2021/06/05 15:35:15;;;;;;;3.93;1.10;;;;;;;;;;5053706;28;20528;-82
2021/06/05 15:38:21;;;;;;;4.20;1.45;;;;;;;;;;5025219;28;20197;-82
2021/06/05 15:41:28;;;;;;;2.90;1.20;;;;;;;;;;5038122;28;20223;-82
2021/06/05 15:44:33;;;;;;;4.80;1.50;;;;;;;;;;5013034;28;20547;-82
2021/06/05 15:47:38;;;;;;;4.07;1.20;;;;;;;;;;5026673;28;20227;-82
2021/06/05 15:50:42;;;;;;;3.77;1.30;;;;;;;;;;5062111;22;20232;-81
2021/06/05 15:53:48;;;;;;;3.17;1.10;;;;;;;;;;5046990;28;20192;-81
2021/06/05 15:56:55;;;;;;;2.37;1.40;;;;;;;;;;5052511;28;20190;-83
2021/06/05 16:00:00;;;;;;;3.73;1.47;;;;;;;;;;5030063;28;20218;-82
2021/06/05 16:03:06;;;;;;;3.07;1.47;;;;;;;;;;5040463;28;20189;-81
2021/06/05 16:06:10;;;;;;;3.27;2.00;;;;;;;;;;5022532;28;20188;-81
2021/06/05 16:09:16;;;;;;;4.67;1.70;;;;;;;;;;5051031;28;20184;-81
2021/06/05 16:12:20;;;;;;;2.40;1.50;;;;;;;;;;5048430;28;20201;-82
2021/06/05 16:15:32;;;;;;;3.30;1.53;;;;;;;;;;5040218;28;20185;-82
2021/06/05 16:18:38;;;;;;;4.03;1.20;;;;;;;;;;5050082;28;20188;-82
2021/06/05 16:21:47;;;;;;;2.10;1.17;;;;;;;;;;5009963;28;20221;-81
2021/06/05 16:24:52;;;;;;;3.33;1.50;;;;;;;;;;4993770;28;20212;-82
2021/06/05 16:27:56;;;;;;;9.87;1.70;;;;;;;;;;5010974;28;20189;-81
2021/06/05 16:31:01;;;;;;;4.20;1.67;;;;;;;;;;4997290;28;20222;-83
2021/06/05 16:34:06;;;;;;;2.50;1.40;;;;;;;;;;5002131;28;20649;-83
2021/06/05 16:37:10;;;;;;;3.33;1.80;;;;;;;;;;5015838;28;20189;-82
2021/06/05 16:40:15;;;;;;;7.87;2.50;;;;;;;;;;4996574;28;20217;-84
2021/06/05 16:43:25;;;;;;;4.40;1.97;;;;;;;;;;5025152;28;20193;-83
2021/06/05 16:46:29;;;;;;;3.83;1.80;;;;;;;;;;5034734;28;20181;-83
2021/06/05 16:49:34;;;;;;;6.10;1.77;;;;;;;;;;5023439;28;20185;-84
2021/06/05 16:52:38;;;;;;;3.57;1.60;;;;;;;;;;5027138;28;20200;-83
2021/06/05 16:55:43;;;;;;;3.73;1.93;;;;;;;;;;5037618;28;20173;-82
2021/06/05 16:58:48;;;;;;;5.57;1.83;;;;;;;;;;5043740;28;20200;-83
2021/06/05 17:01:53;;;;;;;2.10;1.77;;;;;;;;;;5030624;28;20216;-84
2021/06/05 17:04:57;;;;;;;2.30;1.70;;;;;;;;;;5041168;28;20192;-83
2021/06/05 17:08:02;;;;;;;2.93;1.63;;;;;;;;;;5010605;28;20699;-83
2021/06/05 17:11:07;;;;;;;2.70;1.67;;;;;;;;;;5030116;28;20212;-82
2021/06/05 17:14:12;;;;;;;2.60;1.50;;;;;;;;;;5029518;28;20537;-83
2021/06/05 17:17:16;;;;;;;1.60;1.40;;;;;;;;;;5006577;28;20193;-82
2021/06/05 17:20:23;;;;;;;3.93;1.67;;;;;;;;;;5013148;28;20687;-82
2021/06/05 17:23:31;;;;;;;9.73;2.30;;;;;;;;;;5022985;28;20173;-82
2021/06/05 17:26:36;;;;;;;5.60;1.23;;;;;;;;;;5009605;28;20652;-82
2021/06/05 17:29:43;;;;;;;8.63;1.90;;;;;;;;;;5023359;28;20554;-85
2021/06/05 17:32:47;;;;;;;7.80;1.50;;;;;;;;;;5022200;28;20711;-86
2021/06/05 17:35:52;;;;;;;2.00;1.20;;;;;;;;;;5008941;28;20196;-86
2021/06/05 17:38:59;;;;;;;5.70;1.13;;;;;;;;;;5009436;28;20189;-86
2021/06/05 17:42:04;;;;;;;1.20;0.80;;;;;;;;;;5009029;28;20196;-85
2021/06/05 17:45:11;;;;;;;5.63;1.23;;;;;;;;;;5007921;28;20185;-85
2021/06/05 17:48:23;;;;;;;4.43;0.80;;;;;;;;;;5020780;28;20193;-86
2021/06/05 17:51:28;;;;;;;4.20;1.20;;;;;;;;;;5009308;28;20224;-85
2021/06/05 17:54:34;;;;;;;4.97;1.00;;;;;;;;;;5020778;28;20204;-85
2021/06/05 17:57:39;;;;;;;1.87;0.90;;;;;;;;;;5020349;28;20197;-86
2021/06/05 18:00:56;;;;;;;5.83;1.00;;;;;;;;;;5020118;28;20208;-85
2021/06/05 18:04:04;;;;;;;4.73;0.90;;;;;;;;;;5022283;28;20177;-85
2021/06/05 18:07:08;;;;;;;1.00;0.90;;;;;;;;;;4981898;28;20189;-86
2021/06/05 18:10:13;;;;;;;0.60;0.60;;;;;;;;;;5008057;28;20220;-86
2021/06/05 18:13:21;;;;;;;3.13;1.50;;;;;;;;;;5022815;28;20683;-85
2021/06/05 18:16:30;;;;;;;1.13;1.03;;;;;;;;;;5011211;28;20188;-85
2021/06/05 18:19:36;;;;;;;1.20;0.90;;;;;;;;;;5021564;28;20193;-86
2021/06/05 18:22:42;;;;;;;2.30;1.03;;;;;;;;;;4976679;28;20202;-85
2021/06/05 18:25:46;;;;;;;1.40;1.00;;;;;;;;;;5020880;28;20188;-85
2021/06/05 18:28:52;;;;;;;2.33;1.30;;;;;;;;;;5021004;28;20188;-85
2021/06/05 18:31:57;;;;;;;3.00;1.30;;;;;;;;;;5009547;28;20193;-85
2021/06/05 18:35:05;;;;;;;1.10;0.93;;;;;;;;;;5020796;28;20185;-86
2021/06/05 18:38:10;;;;;;;3.83;1.20;;;;;;;;;;5008941;28;20185;-86
2021/06/05 18:41:19;;;;;;;1.87;1.10;;;;;;;;;;5020647;28;20706;-87
2021/06/05 18:44:27;;;;;;;1.93;0.87;;;;;;;;;;5008783;28;20197;-86
2021/06/05 18:47:31;;;;;;;1.10;1.00;;;;;;;;;;5022001;28;20189;-85